createdAt,value
2023-04-18T00:00:57.882Z,85.18
2023-04-18T00:03:24.834Z,85.16
2023-04-18T00:05:51.872Z,84.36
2023-04-18T00:08:18.372Z,85.03
2023-04-18T00:10:44.853Z,84.60
2023-04-18T00:13:12.112Z,84.26
2023-04-18T00:15:38.651Z,84.73
2023-04-18T00:18:06.083Z,84.58
2023-04-18T00:20:32.995Z,84.23
2023-04-18T00:23:00.662Z,85.06
2023-04-18T00:25:27.132Z,84.22
2023-04-18T00:27:53.815Z,84.67
2023-04-18T00:30:20.317Z,84.84
2023-04-18T00:32:46.853Z,84.36
2023-04-18T00:35:13.427Z,84.41
2023-04-18T00:37:39.983Z,84.12
2023-04-18T00:40:06.833Z,84.54
2023-04-18T00:42:33.717Z,84.28
2023-04-18T00:45:01.195Z,84.56
2023-04-18T00:47:27.731Z,83.98
2023-04-18T00:49:54.401Z,84.37
2023-04-18T00:52:20.862Z,84.48
2023-04-18T00:54:47.342Z,85.00
2023-04-18T00:57:13.893Z,84.81
2023-04-18T00:59:40.406Z,85.16
2023-04-18T01:02:07.056Z,85.26
2023-04-18T01:04:33.763Z,85.31
2023-04-18T01:07:01.381Z,85.06
2023-04-18T01:09:28.362Z,85.18
2023-04-18T01:11:54.964Z,85.77
2023-04-18T01:14:21.695Z,85.10
2023-04-18T01:16:51.144Z,85.62
2023-04-18T01:19:17.710Z,85.43
2023-04-18T01:21:44.196Z,85.54
2023-04-18T01:24:14.919Z,85.30
2023-04-18T01:26:43.632Z,85.23
2023-04-18T01:29:10.258Z,85.35
2023-04-18T01:31:37.389Z,85.50
2023-04-18T01:34:04.500Z,85.68
2023-04-18T01:36:31.985Z,86.23
2023-04-18T01:38:59.059Z,86.10
2023-04-18T01:41:25.725Z,86.62
2023-04-18T01:43:52.242Z,86.23
2023-04-18T01:46:18.781Z,86.77
2023-04-18T01:48:45.779Z,86.53
2023-04-18T01:51:12.302Z,87.08
2023-04-18T01:53:38.760Z,87.32
2023-04-18T01:56:05.511Z,87.09
2023-04-18T01:58:32.064Z,87.56
2023-04-18T02:00:58.543Z,87.36
2023-04-18T02:03:25.457Z,87.63
2023-04-18T02:05:52.072Z,87.28
2023-04-18T02:08:18.586Z,87.21
2023-04-18T02:10:45.273Z,87.47
2023-04-18T02:13:11.745Z,87.45
2023-04-18T02:15:38.232Z,87.52
2023-04-18T02:18:04.804Z,87.28
2023-04-18T02:20:34.863Z,87.27
2023-04-18T02:23:01.953Z,87.59
2023-04-18T02:25:29.299Z,87.40
2023-04-18T02:27:56.165Z,87.42
2023-04-18T02:30:23.249Z,87.11
2023-04-18T02:32:53.534Z,87.11
2023-04-18T02:35:20.507Z,87.38
2023-04-18T02:37:46.968Z,87.91
2023-04-18T02:40:13.704Z,87.96
2023-04-18T02:42:40.287Z,88.07
2023-04-18T02:45:07.625Z,87.60
2023-04-18T02:47:43.520Z,88.50
2023-04-18T02:50:18.087Z,87.99
2023-04-18T02:52:44.674Z,88.12
2023-04-18T02:55:11.124Z,88.18
2023-04-18T02:57:37.591Z,88.26
2023-04-18T03:00:06.435Z,88.95
2023-04-18T03:02:33.127Z,89.26
2023-04-18T03:04:59.751Z,89.18
2023-04-18T03:07:26.402Z,89.69
2023-04-18T03:09:52.888Z,89.40
2023-04-18T03:12:19.433Z,89.05
2023-04-18T03:14:45.924Z,88.80
2023-04-18T03:17:12.389Z,89.27
2023-04-18T03:19:38.909Z,89.40
2023-04-18T03:22:06.105Z,89.42
2023-04-18T03:24:32.588Z,89.46
2023-04-18T03:27:00.461Z,89.33
2023-04-18T03:29:27.087Z,89.48
2023-04-18T03:31:53.554Z,89.65
2023-04-18T03:34:20.403Z,89.79
2023-04-18T03:36:48.231Z,89.60
2023-04-18T03:39:14.857Z,90.07
2023-04-18T03:41:41.397Z,90.19
2023-04-18T03:44:08.889Z,90.13
2023-04-18T03:46:35.424Z,90.14
2023-04-18T03:49:01.984Z,90.15
2023-04-18T03:51:41.596Z,90.51
2023-04-18T03:54:08.098Z,90.38
2023-04-18T03:56:34.779Z,90.43
2023-04-18T03:59:01.322Z,90.87
2023-04-18T04:01:27.848Z,90.94
2023-04-18T04:03:54.559Z,90.76
2023-04-18T04:06:21.266Z,90.67
2023-04-18T04:08:47.732Z,90.87
2023-04-18T04:11:14.267Z,91.24
2023-04-18T04:13:40.798Z,91.42
2023-04-18T04:16:07.624Z,91.12
2023-04-18T04:18:34.141Z,91.27
2023-04-18T04:21:00.688Z,91.33
2023-04-18T04:23:27.184Z,91.16
2023-04-18T04:25:54.018Z,90.79
2023-04-18T04:28:23.812Z,90.95
2023-04-18T04:30:53.811Z,90.61
2023-04-18T04:33:20.554Z,90.53
2023-04-18T04:35:47.191Z,90.50
2023-04-18T04:38:15.261Z,90.80
2023-04-18T04:40:42.211Z,90.94
2023-04-18T04:43:12.806Z,90.64
2023-04-18T04:45:41.433Z,91.18
2023-04-18T04:48:08.410Z,90.87
2023-04-18T04:50:38.621Z,90.88
2023-04-18T04:53:06.327Z,90.54
2023-04-18T04:55:33.108Z,90.34
2023-04-18T04:57:59.718Z,90.60
2023-04-18T05:00:26.371Z,90.50
2023-04-18T05:02:55.773Z,90.42
2023-04-18T05:05:22.753Z,90.33
2023-04-18T05:07:49.302Z,90.19
2023-04-18T05:10:15.776Z,90.48
2023-04-18T05:12:42.258Z,89.94
2023-04-18T05:15:09.068Z,90.49
2023-04-18T05:17:35.642Z,89.69
2023-04-18T05:20:02.221Z,89.88
2023-04-18T05:22:28.778Z,89.42
2023-04-18T05:24:55.268Z,89.34
2023-04-18T05:27:21.818Z,89.37
2023-04-18T05:29:50.232Z,89.50
2023-04-18T05:32:16.853Z,89.34
2023-04-18T05:34:43.429Z,88.82
2023-04-18T05:37:09.902Z,89.43
2023-04-18T05:39:36.399Z,88.31
2023-04-18T05:42:03.354Z,88.69
2023-04-18T05:44:30.198Z,88.41
2023-04-18T05:46:56.658Z,89.19
2023-04-18T05:49:23.676Z,88.33
2023-04-18T05:51:50.619Z,87.74
2023-04-18T05:54:17.139Z,88.07
2023-04-18T05:56:43.798Z,87.72
2023-04-18T05:59:10.503Z,86.45
2023-04-18T06:01:36.959Z,86.38
2023-04-18T06:04:03.663Z,86.05
2023-04-18T06:06:31.421Z,86.39
2023-04-18T06:08:57.959Z,86.42
2023-04-18T06:11:25.100Z,86.57
2023-04-18T06:13:51.600Z,86.44
2023-04-18T06:16:18.169Z,86.37
2023-04-18T06:18:44.761Z,86.49
2023-04-18T06:21:11.218Z,86.63
2023-04-18T06:23:38.499Z,86.29
2023-04-18T06:26:05.065Z,86.33
2023-04-18T06:28:31.615Z,86.43
2023-04-18T06:30:58.118Z,85.96
2023-04-18T06:33:24.633Z,84.82
2023-04-18T06:35:51.139Z,84.92
2023-04-18T06:38:17.647Z,85.43
2023-04-18T06:40:44.211Z,84.97
2023-04-18T06:43:10.738Z,85.61
2023-04-18T06:45:37.242Z,84.93
2023-04-18T06:48:04.086Z,85.01
2023-04-18T06:50:30.758Z,84.78
2023-04-18T06:52:57.252Z,84.21
2023-04-18T06:55:23.763Z,84.84
2023-04-18T06:57:50.288Z,84.93
2023-04-18T07:00:16.983Z,84.05
2023-04-18T07:02:43.668Z,84.31
2023-04-18T07:05:10.795Z,84.59
2023-04-18T07:07:37.353Z,84.03
2023-04-18T07:10:04.392Z,84.60
2023-04-18T07:12:30.930Z,84.07
2023-04-18T07:14:57.491Z,83.44
2023-04-18T07:17:24.096Z,83.79
2023-04-18T07:19:50.594Z,83.55
2023-04-18T07:22:17.076Z,84.30
2023-04-18T07:24:44.175Z,83.36
2023-04-18T07:27:10.652Z,84.18
2023-04-18T07:29:37.117Z,83.28
2023-04-18T07:32:04.268Z,83.28
2023-04-18T07:34:31.485Z,83.63
2023-04-18T07:36:58.037Z,83.72
2023-04-18T07:39:24.545Z,83.54
2023-04-18T07:41:51.141Z,82.58
2023-04-18T07:44:18.231Z,82.62
2023-04-18T07:46:44.862Z,82.22
2023-04-18T07:49:11.607Z,81.96
2023-04-18T07:51:38.223Z,81.51
2023-04-18T07:54:04.756Z,81.24
2023-04-18T07:56:31.231Z,81.44
2023-04-18T07:58:57.748Z,80.70
2023-04-18T08:01:27.300Z,80.44
2023-04-18T08:03:55.157Z,80.01
2023-04-18T08:06:21.760Z,80.19
2023-04-18T08:08:48.305Z,79.62
2023-04-18T08:11:14.774Z,80.01
2023-04-18T08:13:41.257Z,79.57
2023-04-18T08:16:07.868Z,79.11
2023-04-18T08:18:35.093Z,79.41
2023-04-18T08:21:01.560Z,78.64
2023-04-18T08:23:28.260Z,78.13
2023-04-18T08:25:54.790Z,78.05
2023-04-18T08:28:21.471Z,77.12
2023-04-18T08:30:49.180Z,77.95
2023-04-18T08:33:16.180Z,77.40
2023-04-18T08:35:43.091Z,77.11
2023-04-18T08:38:09.855Z,77.14
2023-04-18T08:40:37.435Z,76.56
2023-04-18T08:43:04.925Z,76.58
2023-04-18T08:45:31.610Z,76.79
2023-04-18T08:48:01.398Z,76.41
2023-04-18T08:50:27.972Z,75.85
2023-04-18T08:52:54.549Z,75.55
2023-04-18T08:55:22.357Z,75.76
2023-04-18T08:57:50.346Z,75.42
2023-04-18T09:00:17.923Z,75.09
2023-04-18T09:02:44.911Z,76.13
2023-04-18T09:05:16.580Z,75.01
2023-04-18T09:07:43.160Z,74.81
2023-04-18T09:10:10.074Z,73.96
2023-04-18T09:12:46.345Z,73.13
2023-04-18T09:15:15.641Z,74.23
2023-04-18T09:17:45.339Z,73.81
2023-04-18T09:20:12.934Z,73.27
2023-04-18T09:22:52.682Z,73.03
2023-04-18T09:25:34.963Z,73.24
2023-04-18T09:28:02.173Z,73.74
2023-04-18T09:30:29.832Z,72.91
2023-04-18T09:33:00.303Z,73.81
2023-04-18T09:35:27.199Z,73.91
2023-04-18T09:37:53.675Z,74.98
2023-04-18T09:40:20.565Z,75.13
2023-04-18T09:42:48.104Z,74.47
2023-04-18T09:45:15.444Z,75.00
2023-04-18T09:47:42.081Z,75.49
2023-04-18T09:50:09.492Z,74.62
2023-04-18T09:52:40.106Z,74.90
2023-04-18T09:55:08.651Z,75.79
2023-04-18T09:57:35.830Z,74.65
2023-04-18T10:00:16.294Z,74.31
2023-04-18T10:02:50.330Z,73.85
2023-04-18T10:05:19.511Z,74.44
2023-04-18T10:07:48.903Z,74.10
2023-04-18T10:10:15.790Z,73.26
2023-04-18T10:12:42.403Z,74.17
2023-04-18T10:15:09.727Z,73.14
2023-04-18T10:18:14.845Z,73.34
2023-04-18T10:20:41.732Z,73.23
2023-04-18T10:23:38.095Z,73.57
2023-04-18T10:26:08.424Z,73.45
2023-04-18T10:28:53.621Z,73.42
2023-04-18T10:31:27.484Z,72.81
2023-04-18T10:36:30.146Z,72.99
2023-04-18T10:39:00.816Z,71.57
2023-04-18T10:41:27.978Z,71.63
2023-04-18T10:44:09.353Z,72.50
2023-04-18T10:46:36.757Z,72.76
2023-04-18T10:49:34.178Z,71.42
2023-04-18T10:52:01.384Z,73.08
2023-04-18T10:54:39.267Z,72.17
2023-04-18T10:57:07.524Z,71.38
2023-04-18T10:59:37.480Z,71.05
2023-04-18T11:02:33.245Z,71.53
2023-04-18T11:05:01.222Z,71.36
2023-04-18T11:07:37.207Z,69.87
2023-04-18T11:10:04.873Z,70.70
2023-04-18T11:12:32.647Z,70.06
2023-04-18T11:15:01.557Z,70.17
2023-04-18T11:17:29.505Z,71.06
2023-04-18T11:20:00.678Z,68.98
2023-04-18T11:22:27.236Z,69.86
2023-04-18T11:25:07.932Z,68.86
2023-04-18T11:27:34.466Z,69.12
2023-04-18T11:30:01.125Z,68.74
2023-04-18T11:32:27.798Z,68.50
2023-04-18T11:34:54.635Z,69.15
2023-04-18T11:37:21.454Z,69.59
2023-04-18T11:39:48.019Z,67.96
2023-04-18T11:42:14.525Z,69.79
2023-04-18T11:44:44.907Z,70.19
2023-04-18T11:47:24.606Z,68.98
2023-04-18T11:50:00.757Z,69.29
2023-04-18T11:52:28.406Z,67.39
2023-04-18T11:54:55.047Z,67.95
2023-04-18T11:57:39.906Z,66.48
2023-04-18T12:00:07.580Z,67.38
2023-04-18T12:02:45.012Z,66.17
2023-04-18T12:05:14.542Z,65.80
2023-04-18T12:07:42.360Z,65.01
2023-04-18T12:10:20.924Z,64.61
2023-04-18T12:12:51.202Z,64.49
2023-04-18T12:15:18.055Z,64.71
2023-04-18T12:17:45.409Z,63.92
2023-04-18T12:20:13.416Z,64.80
2023-04-18T12:22:44.750Z,63.92
2023-04-18T12:25:26.929Z,62.11
2023-04-18T12:28:00.880Z,65.58
2023-04-18T12:30:28.770Z,66.50
2023-04-18T12:32:59.827Z,65.52
2023-04-18T12:35:26.620Z,64.18
2023-04-18T12:37:54.570Z,63.98
2023-04-18T12:40:21.934Z,63.02
2023-04-18T12:42:48.791Z,63.12
2023-04-18T12:45:15.660Z,63.14
2023-04-18T12:47:43.420Z,64.49
2023-04-18T12:50:11.602Z,65.22
2023-04-18T12:52:39.352Z,63.55
2023-04-18T12:55:06.950Z,62.80
2023-04-18T12:57:33.520Z,62.01
2023-04-18T13:00:00.148Z,62.69
2023-04-18T13:02:29.046Z,62.31
2023-04-18T13:04:56.493Z,64.24
2023-04-18T13:07:23.032Z,62.97
2023-04-18T13:09:49.491Z,63.90
2023-04-18T13:12:15.985Z,66.31
2023-04-18T13:14:42.565Z,66.79
2023-04-18T13:17:09.276Z,65.78
2023-04-18T13:19:35.894Z,65.60
2023-04-18T13:22:03.069Z,63.37
2023-04-18T13:24:29.575Z,64.96
2023-04-18T13:26:56.572Z,63.85
2023-04-18T13:29:23.115Z,65.83
2023-04-18T13:31:49.697Z,65.90
2023-04-18T13:34:16.219Z,66.87
2023-04-18T13:36:42.970Z,66.36
2023-04-18T13:39:10.555Z,65.44
2023-04-18T13:41:37.059Z,66.08
2023-04-18T13:44:03.626Z,67.04
2023-04-18T13:46:30.999Z,67.34
2023-04-18T13:48:57.643Z,65.11
2023-04-18T13:51:24.183Z,64.06
2023-04-18T13:53:51.604Z,63.62
2023-04-18T13:56:18.074Z,58.62
2023-04-18T13:58:44.613Z,58.63
2023-04-18T14:01:11.873Z,62.52
2023-04-18T14:03:39.959Z,62.37
2023-04-18T14:06:08.059Z,63.48
2023-04-18T14:08:34.553Z,64.66
2023-04-18T14:11:01.022Z,64.35
2023-04-18T14:13:27.519Z,63.17
2023-04-18T14:15:54.158Z,63.99
2023-04-18T14:18:21.813Z,64.41
2023-04-18T14:20:48.642Z,65.45
2023-04-18T14:23:15.910Z,66.14
2023-04-18T14:25:42.618Z,65.67
2023-04-18T14:28:10.930Z,66.46
2023-04-18T14:30:38.089Z,66.61
2023-04-18T14:33:04.816Z,67.03
2023-04-18T14:35:31.792Z,67.99
2023-04-18T14:37:58.286Z,67.98
2023-04-18T14:40:24.772Z,67.33
2023-04-18T14:42:51.296Z,67.28
2023-04-18T14:45:17.847Z,67.57
2023-04-18T14:47:44.403Z,67.31
2023-04-18T14:50:14.103Z,67.79
2023-04-18T14:52:40.913Z,68.86
2023-04-18T14:55:08.339Z,68.40
2023-04-18T14:57:36.157Z,69.41
2023-04-18T15:00:05.413Z,69.52
2023-04-18T15:02:32.223Z,70.15
2023-04-18T15:04:59.209Z,70.46
2023-04-18T15:07:26.134Z,70.96
2023-04-18T15:09:52.631Z,71.54
2023-04-18T15:12:19.182Z,70.87
2023-04-18T15:14:45.713Z,71.41
2023-04-18T15:17:12.154Z,70.38
2023-04-18T15:19:38.654Z,70.44
2023-04-18T15:22:05.174Z,70.42
2023-04-18T15:24:31.641Z,69.54
2023-04-18T15:26:58.766Z,69.82
2023-04-18T15:29:25.379Z,68.98
2023-04-18T15:31:51.938Z,69.82
2023-04-18T15:34:18.520Z,70.43
2023-04-18T15:36:46.865Z,69.71
2023-04-18T15:39:13.714Z,70.27
2023-04-18T15:41:42.083Z,70.21
2023-04-18T15:44:08.615Z,70.49
2023-04-18T15:46:36.717Z,71.31
2023-04-18T15:49:03.272Z,71.38
2023-04-18T15:51:30.239Z,72.56
2023-04-18T15:53:56.752Z,71.99
2023-04-18T15:56:27.550Z,72.72
2023-04-18T15:58:57.133Z,72.70
2023-04-18T16:01:23.767Z,72.71
2023-04-18T16:03:50.608Z,73.02
2023-04-18T16:06:19.008Z,72.64
2023-04-18T16:08:45.572Z,72.60
2023-04-18T16:11:12.069Z,72.97
2023-04-18T16:13:38.657Z,72.96
2023-04-18T16:16:05.761Z,72.99
2023-04-18T16:18:32.440Z,73.08
2023-04-18T16:20:59.005Z,72.07
2023-04-18T16:23:26.113Z,72.21
2023-04-18T16:25:55.207Z,71.83
2023-04-18T16:28:22.066Z,72.57
2023-04-18T16:30:48.658Z,72.62
2023-04-18T16:33:15.606Z,72.68
2023-04-18T16:35:42.227Z,72.24
2023-04-18T16:38:08.715Z,72.52
2023-04-18T16:40:35.656Z,72.59
2023-04-18T16:43:02.288Z,72.71
2023-04-18T16:45:28.831Z,72.99
2023-04-18T16:47:55.541Z,73.44
2023-04-18T16:50:22.648Z,73.70
2023-04-18T16:52:49.365Z,73.54
2023-04-18T16:55:16.011Z,73.01
2023-04-18T16:57:42.543Z,73.13
2023-04-18T17:00:10.198Z,73.95
2023-04-18T17:02:39.712Z,73.91
2023-04-18T17:05:06.662Z,74.42
2023-04-18T17:07:33.262Z,74.32
2023-04-18T17:09:59.753Z,74.22
2023-04-18T17:12:26.504Z,74.37
2023-04-18T17:14:52.994Z,74.14
2023-04-18T17:17:19.673Z,74.17
2023-04-18T17:19:46.484Z,74.38
2023-04-18T17:22:12.971Z,74.84
2023-04-18T17:24:39.539Z,74.48
2023-04-18T17:27:06.042Z,74.18
2023-04-18T17:29:32.595Z,74.38
2023-04-18T17:31:59.209Z,74.63
2023-04-18T17:34:25.865Z,74.29
2023-04-18T17:36:52.362Z,75.41
2023-04-18T17:39:18.915Z,75.36
2023-04-18T17:41:45.880Z,75.25
2023-04-18T17:44:12.331Z,75.36
2023-04-18T17:46:39.018Z,75.60
2023-04-18T17:49:05.584Z,75.99
2023-04-18T17:51:32.085Z,76.28
2023-04-18T17:53:58.740Z,76.22
2023-04-18T17:56:25.558Z,76.56
2023-04-18T17:58:52.616Z,76.78
2023-04-18T18:01:21.090Z,77.10
2023-04-18T18:03:48.314Z,76.89
2023-04-18T18:06:15.353Z,77.08
2023-04-18T18:08:43.013Z,76.92
2023-04-18T18:11:10.592Z,77.42
2023-04-18T18:13:38.859Z,77.29
2023-04-18T18:16:06.115Z,77.49
2023-04-18T18:18:32.712Z,77.69
2023-04-18T18:20:59.178Z,77.59
2023-04-18T18:23:25.793Z,77.82
2023-04-18T18:25:52.420Z,78.09
2023-04-18T18:28:19.166Z,77.65
2023-04-18T18:30:45.677Z,78.33
2023-04-18T18:33:12.170Z,77.87
2023-04-18T18:35:38.727Z,78.12
2023-04-18T18:38:05.366Z,78.19
2023-04-18T18:40:31.925Z,78.44
2023-04-18T18:42:59.338Z,78.26
2023-04-18T18:45:26.340Z,78.55
2023-04-18T18:47:52.950Z,78.99
2023-04-18T18:50:19.572Z,78.42
2023-04-18T18:52:46.147Z,78.82
2023-04-18T18:55:12.674Z,78.56
2023-04-18T18:57:39.192Z,79.04
2023-04-18T19:00:09.654Z,78.96
2023-04-18T19:02:36.348Z,78.99
2023-04-18T19:05:03.767Z,78.70
2023-04-18T19:07:30.541Z,79.02
2023-04-18T19:09:57.085Z,78.98
2023-04-18T19:12:23.552Z,79.14
2023-04-18T19:14:50.680Z,79.30
2023-04-18T19:17:19.118Z,78.79
2023-04-18T19:19:45.679Z,79.12
2023-04-18T19:22:12.247Z,79.36
2023-04-18T19:24:38.785Z,79.09
2023-04-18T19:27:05.298Z,78.87
2023-04-18T19:29:32.879Z,79.07
2023-04-18T19:31:59.634Z,79.31
2023-04-18T19:34:26.118Z,79.20
2023-04-18T19:36:52.644Z,79.45
2023-04-18T19:39:19.143Z,79.79
2023-04-18T19:41:45.992Z,79.59
2023-04-18T19:44:12.534Z,79.43
2023-04-18T19:46:39.308Z,79.69
2023-04-18T19:49:05.884Z,79.82
2023-04-18T19:51:32.423Z,79.91
2023-04-18T19:53:58.945Z,79.63
2023-04-18T19:56:25.430Z,79.86
2023-04-18T19:58:51.991Z,80.33
2023-04-18T20:01:19.153Z,79.88
2023-04-18T20:03:47.022Z,79.78
2023-04-18T20:06:13.768Z,80.27
2023-04-18T20:08:45.010Z,79.94
2023-04-18T20:11:12.031Z,79.80
2023-04-18T20:13:38.571Z,79.69
2023-04-18T20:16:05.589Z,80.06
2023-04-18T20:18:33.832Z,79.82
2023-04-18T20:21:00.760Z,80.26
2023-04-18T20:23:27.274Z,80.40
2023-04-18T20:25:53.754Z,80.45
2023-04-18T20:28:20.536Z,80.50
2023-04-18T20:30:47.961Z,80.37
2023-04-18T20:33:14.606Z,80.68
2023-04-18T20:35:41.518Z,80.71
2023-04-18T20:38:09.810Z,80.68
2023-04-18T20:40:37.156Z,80.98
2023-04-18T20:43:03.704Z,80.70
2023-04-18T20:45:30.203Z,81.05
2023-04-18T20:47:56.845Z,80.98
2023-04-18T20:50:23.422Z,81.17
2023-04-18T20:52:49.882Z,80.94
2023-04-18T20:55:18.210Z,80.58
2023-04-18T20:57:44.906Z,80.80
2023-04-18T21:00:13.866Z,80.96
2023-04-18T21:02:41.444Z,81.42
2023-04-18T21:05:08.254Z,80.88
2023-04-18T21:07:35.306Z,81.15
2023-04-18T21:10:04.927Z,81.61
2023-04-18T21:12:31.420Z,81.07
2023-04-18T21:14:57.891Z,81.68
2023-04-18T21:17:25.604Z,81.05
2023-04-18T21:19:52.539Z,81.45
2023-04-18T21:22:19.052Z,80.87
2023-04-18T21:24:46.724Z,80.86
2023-04-18T21:27:13.738Z,81.28
2023-04-18T21:29:40.651Z,81.42
2023-04-18T21:32:07.124Z,81.40
2023-04-18T21:34:33.673Z,81.51
2023-04-18T21:37:00.490Z,81.56
2023-04-18T21:39:27.364Z,81.26
2023-04-18T21:41:53.842Z,81.30
2023-04-18T21:44:20.361Z,81.25
2023-04-18T21:46:46.922Z,81.19
2023-04-18T21:49:13.489Z,81.14
2023-04-18T21:51:39.986Z,81.31
2023-04-18T21:54:07.650Z,81.25
2023-04-18T21:56:34.210Z,81.45
2023-04-18T21:59:00.900Z,81.28
2023-04-18T22:01:27.454Z,81.32
2023-04-18T22:03:54.077Z,81.11
2023-04-18T22:06:20.736Z,81.00
2023-04-18T22:08:48.140Z,81.12
2023-04-18T22:11:15.725Z,80.89
2023-04-18T22:13:44.532Z,81.34
2023-04-18T22:16:11.016Z,81.41
2023-04-18T22:18:38.165Z,81.34
2023-04-18T22:21:04.795Z,81.21
2023-04-18T22:23:31.376Z,80.83
2023-04-18T22:25:57.917Z,81.09
2023-04-18T22:28:24.507Z,80.70
2023-04-18T22:30:51.283Z,80.82
2023-04-18T22:33:17.895Z,80.91
2023-04-18T22:35:46.146Z,80.82
2023-04-18T22:38:12.613Z,81.22
2023-04-18T22:40:39.112Z,80.74
2023-04-18T22:43:05.562Z,80.80
2023-04-18T22:45:33.586Z,80.44
2023-04-18T22:48:00.431Z,80.83
2023-04-18T22:50:27.354Z,80.51
2023-04-18T22:52:53.856Z,80.87
2023-04-18T22:55:20.527Z,81.08
2023-04-18T22:57:47.071Z,80.89
2023-04-18T23:00:14.024Z,80.87
2023-04-18T23:02:40.808Z,81.14
2023-04-18T23:05:07.946Z,80.99
2023-04-18T23:07:34.451Z,81.16
2023-04-18T23:10:00.910Z,80.63
2023-04-18T23:12:27.741Z,80.75
2023-04-18T23:14:54.207Z,80.86
2023-04-18T23:17:20.990Z,80.67
2023-04-18T23:19:47.499Z,80.15
2023-04-18T23:22:13.970Z,80.43
2023-04-18T23:24:40.583Z,80.80
2023-04-18T23:27:07.146Z,80.55
2023-04-18T23:29:37.695Z,80.97
2023-04-18T23:32:04.708Z,80.86
2023-04-18T23:34:31.829Z,80.77
2023-04-18T23:36:58.295Z,80.52
2023-04-18T23:39:26.239Z,80.62
2023-04-18T23:41:52.696Z,81.18
2023-04-18T23:44:19.152Z,80.50
2023-04-18T23:46:45.928Z,80.47
2023-04-18T23:49:12.437Z,80.58
2023-04-18T23:51:38.884Z,80.95
2023-04-18T23:54:05.572Z,80.45
2023-04-18T23:56:32.171Z,80.20
2023-04-18T23:58:58.645Z,80.60
